createdAt,value
2023-03-31T00:01:19.653Z,12.80
2023-03-31T00:05:01.959Z,12.90
2023-03-31T00:08:44.685Z,10.88
2023-03-31T00:12:26.672Z,7.80
2023-03-31T00:16:10.773Z,13.73
2023-03-31T00:19:53.913Z,13.15
2023-03-31T00:23:36.064Z,16.60
2023-03-31T00:27:18.136Z,21.48
2023-03-31T00:31:01.730Z,19.85
2023-03-31T00:34:44.687Z,26.13
2023-03-31T00:38:29.190Z,24.63
2023-03-31T00:42:15.157Z,14.80
2023-03-31T00:46:22.795Z,19.73
2023-03-31T00:50:14.736Z,23.70
2023-03-31T00:54:00.498Z,24.92
2023-03-31T00:57:46.814Z,23.20
2023-03-31T01:01:31.977Z,20.03
2023-03-31T01:05:14.114Z,20.98
2023-03-31T01:08:56.634Z,19.25
2023-03-31T01:12:41.304Z,23.25
2023-03-31T01:16:23.839Z,19.55
2023-03-31T01:20:33.984Z,31.85
2023-03-31T01:25:01.764Z,25.05
2023-03-31T01:29:11.905Z,37.47
2023-03-31T01:33:26.660Z,37.67
2023-03-31T01:37:41.365Z,35.22
2023-03-31T01:41:41.989Z,26.03
2023-03-31T01:45:34.793Z,29.15
2023-03-31T01:49:50.589Z,23.45
2023-03-31T01:53:44.808Z,27.23
2023-03-31T01:57:40.296Z,22.08
2023-03-31T02:01:38.137Z,17.52
2023-03-31T02:05:26.501Z,13.82
2023-03-31T02:09:16.523Z,13.57
2023-03-31T02:13:01.447Z,15.80
2023-03-31T02:16:47.813Z,10.70
2023-03-31T02:20:32.678Z,9.13
2023-03-31T02:24:15.992Z,11.27
2023-03-31T02:28:02.047Z,11.85
2023-03-31T02:31:46.849Z,9.05
2023-03-31T02:35:29.036Z,10.02
2023-03-31T02:39:15.737Z,11.98
2023-03-31T02:42:57.660Z,8.98
2023-03-31T02:46:41.107Z,13.73
2023-03-31T02:50:32.668Z,15.75
2023-03-31T02:54:54.565Z,15.20
2023-03-31T02:58:58.197Z,13.43
2023-03-31T03:02:49.163Z,16.98
2023-03-31T03:07:07.234Z,19.88
2023-03-31T03:11:18.107Z,16.90
2023-03-31T03:15:32.327Z,20.42
2023-03-31T03:19:20.453Z,23.67
2023-03-31T03:23:02.983Z,25.65
2023-03-31T03:26:45.511Z,30.60
2023-03-31T03:30:27.518Z,21.95
2023-03-31T03:34:12.997Z,22.50
2023-03-31T03:37:55.147Z,30.10
2023-03-31T03:41:37.122Z,30.77
2023-03-31T03:45:19.122Z,29.58
2023-03-31T03:49:01.127Z,23.73
2023-03-31T03:52:43.203Z,22.48
2023-03-31T03:56:26.436Z,20.02
2023-03-31T04:00:12.467Z,21.67
2023-03-31T04:03:54.852Z,21.40
2023-03-31T04:07:36.965Z,21.77
2023-03-31T04:11:19.467Z,18.15
2023-03-31T04:15:01.835Z,18.63
2023-03-31T04:18:48.872Z,16.85
2023-03-31T04:22:37.366Z,21.55
2023-03-31T04:26:26.863Z,19.23
2023-03-31T04:30:09.550Z,19.38
2023-03-31T04:33:57.930Z,18.15
2023-03-31T04:37:40.045Z,17.98
2023-03-31T04:41:23.648Z,13.97
2023-03-31T04:45:06.256Z,18.98
2023-03-31T04:48:48.958Z,18.95
2023-03-31T04:52:31.133Z,12.27
2023-03-31T04:56:13.419Z,11.95
2023-03-31T04:59:55.455Z,17.83
2023-03-31T05:03:37.482Z,15.73
2023-03-31T05:07:19.637Z,11.52
2023-03-31T05:11:03.974Z,13.77
2023-03-31T05:14:46.060Z,12.52
2023-03-31T05:18:28.006Z,18.63
2023-03-31T05:22:10.004Z,17.85
2023-03-31T05:25:51.937Z,13.68
2023-03-31T05:29:33.950Z,19.80
2023-03-31T05:33:15.854Z,11.40
2023-03-31T05:36:58.597Z,13.77
2023-03-31T05:40:40.528Z,11.88
2023-03-31T05:44:22.375Z,10.13
2023-03-31T05:48:04.529Z,11.35
2023-03-31T05:51:46.894Z,11.80
2023-03-31T05:55:28.797Z,7.00
2023-03-31T05:59:10.785Z,8.73
2023-03-31T06:02:52.914Z,7.80
2023-03-31T06:06:37.617Z,16.03
2023-03-31T06:10:20.788Z,11.60
2023-03-31T06:14:02.708Z,10.02
2023-03-31T06:17:44.691Z,5.75
2023-03-31T06:21:26.640Z,8.93
2023-03-31T06:25:09.114Z,6.55
2023-03-31T06:28:51.173Z,5.03
2023-03-31T06:32:33.187Z,6.53
2023-03-31T06:36:18.108Z,4.78
2023-03-31T06:40:00.215Z,4.03
2023-03-31T06:43:42.748Z,4.93
2023-03-31T06:47:24.839Z,3.72
2023-03-31T06:51:07.801Z,3.15
2023-03-31T06:54:49.819Z,5.63
2023-03-31T06:58:31.955Z,3.50
2023-03-31T07:02:13.916Z,4.75
2023-03-31T07:05:56.223Z,7.32
2023-03-31T07:09:38.210Z,4.57
2023-03-31T07:13:20.518Z,5.70
2023-03-31T07:17:02.976Z,3.92
2023-03-31T07:20:47.714Z,7.20
2023-03-31T07:24:30.641Z,5.95
2023-03-31T07:28:12.644Z,6.47
2023-03-31T07:31:54.650Z,7.25
2023-03-31T07:35:42.841Z,4.00
2023-03-31T07:39:24.840Z,8.32
2023-03-31T07:43:07.163Z,6.18
2023-03-31T07:46:49.315Z,4.80
2023-03-31T07:50:31.396Z,5.88
2023-03-31T07:54:13.337Z,5.80
2023-03-31T07:57:55.793Z,4.07
2023-03-31T08:01:37.832Z,5.38
2023-03-31T08:05:21.540Z,3.97
2023-03-31T08:09:05.210Z,6.68
2023-03-31T08:12:47.199Z,4.95
2023-03-31T08:16:29.169Z,4.30
2023-03-31T08:20:11.775Z,5.10
2023-03-31T08:23:55.505Z,5.70
2023-03-31T08:27:39.799Z,7.38
2023-03-31T08:31:26.668Z,5.25
2023-03-31T08:35:09.790Z,3.80
2023-03-31T08:39:24.523Z,8.15
2023-03-31T08:43:35.445Z,3.88
2023-03-31T08:47:21.489Z,6.15
2023-03-31T08:51:32.799Z,6.30
2023-03-31T08:55:24.235Z,7.25
2023-03-31T08:59:30.534Z,7.55
2023-03-31T09:12:10.540Z,4.57
2023-03-31T09:16:38.098Z,6.67
2023-03-31T09:21:06.070Z,4.03
2023-03-31T09:29:00.459Z,5.10
2023-03-31T09:33:16.184Z,6.13
2023-03-31T09:36:58.368Z,5.65
2023-03-31T09:44:46.982Z,9.80
2023-03-31T10:06:00.741Z,4.85
2023-03-31T10:18:39.030Z,3.72
2023-03-31T10:22:45.870Z,7.63
2023-03-31T10:26:29.031Z,3.67
2023-03-31T10:30:42.846Z,7.18
2023-03-31T10:34:25.318Z,4.25
2023-03-31T10:38:27.472Z,5.27
2023-03-31T10:42:09.926Z,5.53
2023-03-31T10:46:23.666Z,4.40
2023-03-31T10:54:27.228Z,5.00
2023-03-31T10:58:49.327Z,4.35
2023-03-31T11:30:13.308Z,2.80
2023-03-31T11:34:01.503Z,4.90
2023-03-31T11:38:18.544Z,3.45
2023-03-31T11:46:24.158Z,7.28
2023-03-31T11:50:38.571Z,5.13
2023-03-31T11:58:47.794Z,4.65
2023-03-31T12:02:54.086Z,4.93
2023-03-31T12:06:42.168Z,4.95
2023-03-31T12:14:34.576Z,6.60
2023-03-31T12:19:03.258Z,7.07
2023-03-31T12:23:15.067Z,5.70
2023-03-31T12:31:33.359Z,5.03
2023-03-31T12:40:18.284Z,5.70
2023-03-31T12:57:27.186Z,7.07
2023-03-31T13:02:41.468Z,5.38
2023-03-31T13:06:29.517Z,6.20
2023-03-31T13:10:30.437Z,4.13
2023-03-31T13:26:38.811Z,7.38
2023-03-31T13:38:54.232Z,6.35
2023-03-31T13:47:57.840Z,5.65
2023-03-31T13:52:13.838Z,7.93
2023-03-31T13:55:56.529Z,7.95
2023-03-31T14:08:24.234Z,6.00
2023-03-31T14:12:31.623Z,7.32
2023-03-31T14:16:16.006Z,7.53
2023-03-31T14:37:42.532Z,9.50
2023-03-31T14:41:58.927Z,6.72
2023-03-31T15:03:36.503Z,10.90
2023-03-31T15:07:49.835Z,8.75
2023-03-31T15:11:32.815Z,8.20
2023-03-31T15:19:21.716Z,6.70
2023-03-31T15:23:28.888Z,4.90
2023-03-31T15:32:24.421Z,8.82
2023-03-31T15:36:08.308Z,6.15
2023-03-31T15:40:49.566Z,7.93
2023-03-31T15:44:57.086Z,7.80
2023-03-31T15:52:58.405Z,7.78
2023-03-31T16:09:50.398Z,5.63
2023-03-31T16:17:40.785Z,8.27
2023-03-31T16:25:41.051Z,8.07
2023-03-31T16:30:22.919Z,10.18
2023-03-31T16:34:31.563Z,7.55
2023-03-31T16:38:16.547Z,13.38
2023-03-31T16:46:04.263Z,9.77
2023-03-31T16:50:31.859Z,10.73
2023-03-31T16:54:50.206Z,10.80
2023-03-31T16:58:32.392Z,8.43
2023-03-31T17:06:15.013Z,11.43
2023-03-31T17:14:06.034Z,6.72
2023-03-31T17:18:33.478Z,13.88
2023-03-31T17:22:49.539Z,7.18
2023-03-31T17:26:32.005Z,6.72
2023-03-31T17:34:27.349Z,11.07
2023-03-31T17:38:38.361Z,13.98
2023-03-31T17:42:20.773Z,7.23
2023-03-31T17:46:40.941Z,13.73
2023-03-31T18:28:35.425Z,9.77
2023-03-31T18:32:42.172Z,6.90
2023-03-31T18:36:25.077Z,10.52
2023-03-31T18:40:08.133Z,8.45
2023-03-31T18:43:52.225Z,5.47
2023-03-31T18:47:34.812Z,8.73
2023-03-31T18:51:16.912Z,7.87
2023-03-31T18:54:58.930Z,8.00
2023-03-31T18:58:41.038Z,9.10
2023-03-31T19:02:23.203Z,10.13
2023-03-31T19:06:10.421Z,12.70
2023-03-31T19:09:52.570Z,8.60
2023-03-31T19:13:35.243Z,10.52
2023-03-31T19:17:17.947Z,10.52
2023-03-31T19:21:01.363Z,12.05
2023-03-31T19:24:45.301Z,11.20
2023-03-31T19:28:27.965Z,9.80
2023-03-31T19:32:10.066Z,9.05
2023-03-31T19:35:52.619Z,5.97
2023-03-31T19:39:34.801Z,11.03
2023-03-31T19:43:23.221Z,10.25
2023-03-31T19:47:05.778Z,10.20
2023-03-31T19:50:51.939Z,7.80
2023-03-31T19:54:41.419Z,11.63
2023-03-31T19:58:23.929Z,9.93
2023-03-31T20:02:07.103Z,9.10
2023-03-31T20:05:49.375Z,10.33
2023-03-31T20:09:31.500Z,10.95
2023-03-31T20:13:13.692Z,7.82
2023-03-31T20:16:55.773Z,8.67
2023-03-31T20:20:38.328Z,10.48
2023-03-31T20:24:20.864Z,7.60
2023-03-31T20:28:05.372Z,12.48
2023-03-31T20:31:47.516Z,5.65
2023-03-31T20:35:29.841Z,9.38
2023-03-31T20:39:14.152Z,9.52
2023-03-31T20:42:57.008Z,6.73
2023-03-31T20:46:39.428Z,7.45
2023-03-31T20:50:23.183Z,6.82
2023-03-31T20:54:06.271Z,8.73
2023-03-31T20:57:48.280Z,8.02
2023-03-31T21:01:34.948Z,11.18
2023-03-31T21:05:18.235Z,12.30
2023-03-31T21:09:00.223Z,8.65
2023-03-31T21:12:46.352Z,8.88
2023-03-31T21:16:28.741Z,9.23
2023-03-31T21:20:11.269Z,7.53
2023-03-31T21:23:54.000Z,9.02
2023-03-31T21:27:36.235Z,10.15
2023-03-31T21:31:19.151Z,9.17
2023-03-31T21:35:02.152Z,9.30
2023-03-31T21:38:46.083Z,10.77
2023-03-31T21:42:28.621Z,8.18
2023-03-31T21:46:17.794Z,11.13
2023-03-31T21:49:59.948Z,12.48
2023-03-31T21:53:42.119Z,11.82
2023-03-31T21:57:24.323Z,9.97
2023-03-31T22:01:08.983Z,7.60
2023-03-31T22:04:51.224Z,10.55
2023-03-31T22:08:34.162Z,11.37
2023-03-31T22:12:16.888Z,15.98
2023-03-31T22:16:01.756Z,11.40
2023-03-31T22:19:45.360Z,11.23
2023-03-31T22:23:27.898Z,6.72
2023-03-31T22:27:10.105Z,10.70
2023-03-31T22:30:52.196Z,7.47
2023-03-31T22:34:34.422Z,8.37
2023-03-31T22:38:16.818Z,8.95
2023-03-31T22:41:58.805Z,10.20
2023-03-31T22:45:40.820Z,8.30
2023-03-31T22:49:23.069Z,8.57
2023-03-31T22:53:05.182Z,8.63
2023-03-31T22:56:47.383Z,8.82
2023-03-31T23:00:31.760Z,8.05
2023-03-31T23:04:13.846Z,6.63
2023-03-31T23:07:57.575Z,8.40
2023-03-31T23:11:39.585Z,8.77
2023-03-31T23:15:21.699Z,8.98
2023-03-31T23:19:03.917Z,10.95
2023-03-31T23:22:45.908Z,10.93
2023-03-31T23:26:29.744Z,10.75
2023-03-31T23:30:12.413Z,7.55
2023-03-31T23:33:54.404Z,11.18
2023-03-31T23:37:36.502Z,10.85
2023-03-31T23:41:20.364Z,11.75
2023-03-31T23:45:02.573Z,10.27
2023-03-31T23:48:44.859Z,10.63
2023-03-31T23:52:27.505Z,11.65
2023-03-31T23:56:12.287Z,13.35
2023-03-31T23:59:54.339Z,11.53
